Latest Weather Observations for Sydney Airport

IDN60901

Issued at 11:21 am EDT Tuesday 19 February 2019 (issued every 10 minutes, with the page automatically refreshed every 10 minutes)

About weather observations | Map of Sydney area stations | Latest observations for Sydney area | Other Formats
Station Details ID: 066037 Name: SYDNEY AIRPORT AMO Lat: -33.95 Lon: 151.17 Height: 6.0 m
Data from the previous 72 hours. | See also: Recent months at Sydney Airport
Date/Time
EDT
Temp
°C
App
Temp
°C
Dew
Point
°C
Rel
Hum
%
Delta-T
°C
Wind Press
QNH
hPa
Press
MSL
hPa
Rain since
9am
mm
Dir  Spd
km/h
Gust
km/h
Spd
kts
Gust
kts
19/11:00am 24.5 21.2 20.0 76 2.9 S 37 48 20 26 1006.7 1006.7 0.0
19/10:30am 25.4 24.3 20.2 73 3.4 S 26 35 14 19 1006.5 1006.5 0.0
19/10:00am 25.4 26.9 19.8 71 3.6 S 11 15 6 8 1006.2 1006.2 0.0
19/09:30am 26.0 27.9 18.9 65 4.5 SW 7 11 4 6 1005.9 1005.9 0.0
19/09:00am 26.3 27.8 18.9 63 4.7 WNW 9 15 5 8 1005.9 1005.9 0.0
19/08:30am 25.5 26.4 19.2 68 4.0 WNW 13 17 7 9 1005.7 1005.7 0.0
19/08:00am 24.9 25.0 19.9 74 3.2 NNW 19 28 10 15 1005.3 1005.3 0.0
19/07:30am 24.5 24.4 20.0 76 2.9 N 20 30 11 16 1005.1 1005.1 0.0
19/07:00am 24.4 24.6 20.1 77 2.8 N 19 28 10 15 1005.3 1005.3 0.0
19/06:30am 24.3 24.4 20.0 77 2.8 NNE 19 24 10 13 1005.3 1005.3 0.0
19/06:00am 24.0 24.5 20.1 79 2.5 N 17 26 9 14 1005.6 1005.6 0.0
19/05:30am 23.5 24.7 19.8 80 2.4 N 13 19 7 10 1005.0 1005.0 0.0
19/05:00am 23.7 22.9 20.0 80 2.4 NE 24 32 13 17 1004.7 1004.7 0.0
19/04:30am 23.0 21.1 20.1 84 1.9 NE 30 35 16 19 1004.9 1004.9 0.0
19/04:00am 22.7 21.2 20.2 86 1.6 E 28 35 15 19 1005.2 1005.2 0.0
19/03:57am 22.8 21.7 20.3 86 1.6 E 26 35 14 19 1005.4 1005.4 0.0
19/03:30am 23.0 24.5 20.5 86 1.6 ESE 13 15 7 8 1007.0 1007.0 0.0
19/03:00am 22.9 23.7 20.6 87 1.5 SW 17 20 9 11 1007.6 1007.6 0.0
19/02:30am 22.9 25.4 20.2 85 1.7 S 7 7 4 4 1007.4 1007.4 0.0
19/02:00am 22.8 24.8 20.0 84 1.8 E 9 17 5 9 1007.0 1007.0 0.0
19/01:30am 23.0 24.2 20.0 83 1.9 ESE 13 19 7 10 1006.7 1006.7 0.0
19/01:00am 23.2 24.4 20.7 86 1.6 SSE 15 17 8 9 1007.0 1007.0 0.0
19/12:30am 22.9 23.4 20.1 84 1.8 S 17 19 9 10 1007.2 1007.2 0.0
19/12:00am 23.5 23.1 19.0 76 2.9 SE 19 22 10 12 1007.2 1007.2 0.0
 
Date/Time
EDT
Temp
°C
App
Temp
°C
Dew
Point
°C
Rel
Hum
%
Delta-T
°C
Wind Press
QNH
hPa
Press
MSL
hPa
Rain since
9am
mm
Dir  Spd
km/h
Gust
km/h
Spd
kts
Gust
kts
18/11:30pm 23.5 22.5 18.8 75 3.0 S 22 33 12 18 1007.5 1007.5 0.0
18/11:08pm 23.7 22.9 20.0 80 2.4 SSW 24 41 13 22 1007.7 1007.7 0.0
18/11:00pm 23.6 24.8 19.9 80 2.4 SW 13 20 7 11 1007.1 1007.1 0.0
18/10:30pm 24.9 25.1 19.3 71 3.6 NNE 17 20 9 11 1006.2 1006.2 0.0
18/10:00pm 25.1 23.1 19.2 70 3.8 NNE 28 32 15 17 1006.1 1006.1 0.0
18/09:30pm 25.6 24.6 19.7 70 3.8 NNE 24 33 13 18 1006.0 1006.0 0.0
18/09:00pm 25.4 21.4 19.3 69 3.9 NNE 39 50 21 27 1005.4 1005.4 0.0
18/08:30pm 25.3 20.4 19.4 70 3.8 NNE 44 54 24 29 1004.9 1004.9 0.0
18/08:07pm 25.7 21.7 19.3 67 4.1 NNE 39 57 21 31 1004.7 1004.7 0.0
18/08:00pm 25.1 20.5 18.8 68 4.0 NNE 41 56 22 30 1004.6 1004.6 0.0
18/07:35pm 26.1 21.9 19.0 65 4.5 NNE 39 59 21 32 1004.5 1004.5 0.0
18/07:30pm 26.3 22.1 18.9 63 4.7 NNE 39 52 21 28 1004.5 1004.5 0.0
18/07:00pm 26.3 20.5 18.2 61 5.1 NNE 46 63 25 34 1004.4 1004.4 0.0
18/06:30pm 27.0 21.7 18.6 60 5.4 NNE 44 59 24 32 1004.3 1004.3 0.0
18/06:00pm 27.3 22.2 18.6 59 5.6 NE 43 54 23 29 1004.5 1004.5 0.0
18/05:30pm 27.9 21.8 17.7 53 6.4 NNE 46 57 25 31 1004.6 1004.6 0.0
18/05:00pm 29.7 24.4 18.2 50 7.4 NE 43 52 23 28 1004.7 1004.7 0.0
18/04:30pm 30.4 25.4 17.1 44 8.4 NE 39 54 21 29 1004.9 1004.9 0.0
18/04:00pm 30.7 24.8 16.7 43 8.8 NE 43 52 23 28 1005.3 1005.3 0.0
18/03:30pm 31.1 26.8 15.9 40 9.5 NE 33 39 18 21 1005.7 1005.7 0.0
18/03:00pm 32.2 28.1 16.5 39 9.9 NE 33 41 18 22 1006.3 1006.3 0.0
18/02:30pm 30.8 26.6 15.6 39 9.4 NE 32 39 17 21 1007.0 1007.0 0.0
18/02:00pm 29.5 27.1 17.3 47 7.7 NE 26 35 14 19 1007.3 1007.3 0.0
18/01:30pm 30.6 28.5 18.0 47 8.1 ENE 26 33 14 18 1007.8 1007.8 0.0
18/01:00pm 31.2 30.2 18.9 48 8.0 NE 22 28 12 15 1008.3 1008.3 0.0
18/12:30pm 29.8 28.4 17.9 48 7.6 NE 22 28 12 15 1008.7 1008.7 0.0
18/12:00pm 30.0 29.2 18.4 49 7.5 ENE 20 26 11 14 1009.2 1009.2 0.0
18/11:30am 30.6 30.2 18.0 47 8.1 NE 17 24 9 13 1009.7 1009.7 0.0
18/11:00am 29.4 30.9 17.6 49 7.5 NE 6 9 3 5 1010.1 1010.1 0.0
18/10:30am 28.6 30.4 18.4 54 6.5 WSW 6 11 3 6 1010.4 1010.4 0.0
18/10:00am 26.9 29.3 17.9 57 5.7 NE 2 9 1 5 1010.5 1010.5 0.0
18/09:30am 26.8 28.1 18.4 60 5.3 NNE 9 11 5 6 1010.7 1010.7 0.0
18/09:00am 25.9 28.3 18.8 65 4.5 NE 4 7 2 4 1010.8 1010.8 0.0
18/08:30am 25.2 26.6 18.6 67 4.2 WNW 9 13 5 7 1010.7 1010.7 0.0
18/08:00am 24.4 25.6 19.0 72 3.4 NNE 11 13 6 7 1010.5 1010.5 0.0
18/07:30am 23.7 24.8 18.8 74 3.1 NNE 11 13 6 7 1010.3 1010.3 0.0
18/07:00am 23.1 24.2 18.8 77 2.7 NNE 11 13 6 7 1010.1 1010.1 0.0
18/06:30am 23.1 25.3 19.1 78 2.5 NNE 6 13 3 7 1010.0 1010.0 0.0
18/06:00am 22.4 25.3 19.0 81 2.2 W 2 6 1 3 1009.9 1009.9 0.0
18/05:30am 22.4 23.5 18.8 80 2.3 NNE 11 13 6 7 1009.9 1009.9 0.0
18/05:00am 22.1 23.8 18.5 80 2.3 NNE 7 11 4 6 1009.8 1009.8 0.0
18/04:30am 22.2 22.8 18.6 80 2.3 NNE 13 15 7 8 1009.6 1009.6 0.0
18/04:00am 22.5 23.1 18.7 79 2.4 NNE 13 19 7 10 1009.9 1009.9 0.0
18/03:30am 22.5 22.9 19.1 81 2.2 NNE 15 19 8 10 1010.0 1010.0 0.0
18/03:00am 22.5 22.9 19.1 81 2.2 NNE 15 19 8 10 1010.1 1010.1 0.0
18/02:30am 22.7 23.0 19.5 82 2.0 NNE 17 20 9 11 1010.1 1010.1 0.0
18/02:00am 22.8 23.0 19.4 81 2.2 NE 17 24 9 13 1010.4 1010.4 0.0
18/01:30am 23.1 23.0 18.8 77 2.7 NE 17 20 9 11 1010.8 1010.8 0.0
18/01:00am 23.3 23.5 18.6 75 3.0 NNE 15 19 8 10 1011.4 1011.4 0.0
18/12:30am 23.8 23.4 18.9 74 3.1 NNE 19 24 10 13 1011.5 1011.5 0.0
18/12:00am 23.5 22.9 18.8 75 3.0 NNE 20 26 11 14 1011.8 1011.8 0.0
 
Date/Time
EDT
Temp
°C
App
Temp
°C
Dew
Point
°C
Rel
Hum
%
Delta-T
°C
Wind Press
QNH
hPa
Press
MSL
hPa
Rain since
9am
mm
Dir  Spd
km/h
Gust
km/h
Spd
kts
Gust
kts
17/11:30pm 23.9 23.3 18.8 73 3.2 NNE 20 30 11 16 1011.9 1011.9 0.0
17/11:00pm 24.2 23.3 19.1 73 3.3 NNE 22 30 12 16 1012.1 1012.1 0.0
17/10:30pm 24.0 21.9 18.9 73 3.2 NNE 28 37 15 20 1012.1 1012.1 0.0
17/10:00pm 24.8 22.8 19.2 71 3.6 NNE 28 37 15 20 1012.2 1012.2 0.0
17/09:30pm 24.9 22.3 19.5 72 3.5 NNE 32 41 17 22 1011.8 1011.8 0.0
17/09:00pm 25.1 22.1 19.0 69 3.9 NNE 33 48 18 26 1011.2 1011.2 0.0
17/08:30pm 25.2 22.1 18.4 66 4.3 NNE 32 43 17 23 1011.0 1011.0 0.0
17/08:00pm 25.7 22.1 18.6 65 4.5 NE 35 48 19 26 1010.7 1010.7 0.0
17/07:30pm 26.2 22.4 18.1 61 5.1 NE 35 46 19 25 1010.3 1010.3 0.0
17/07:00pm 26.6 22.6 17.7 58 5.6 NE 35 46 19 25 1010.1 1010.1 0.0
17/06:30pm 27.0 22.7 16.9 54 6.3 NE 35 43 19 23 1010.1 1010.1 0.0
17/06:00pm 28.3 25.1 17.2 51 7.0 NE 30 39 16 21 1010.1 1010.1 0.0
17/05:30pm 28.4 24.2 16.3 47 7.5 NE 33 41 18 22 1010.2 1010.2 0.0
17/05:00pm 29.6 24.6 16.1 44 8.4 NE 37 44 20 24 1010.3 1010.3 0.0
17/04:30pm 28.7 23.0 15.2 43 8.2 NE 39 46 21 25 1010.4 1010.4 0.0
17/04:00pm 28.8 23.4 13.9 40 8.9 NE 35 44 19 24 1010.7 1010.7 0.0
17/03:30pm 29.7 25.2 15.0 40 9.0 ENE 32 37 17 20 1010.8 1010.8 0.0
17/03:00pm 29.7 25.2 13.9 38 9.5 NE 30 37 16 20 1011.2 1011.2 0.0
17/02:30pm 30.1 25.7 14.2 38 9.6 ENE 30 35 16 19 1011.6 1011.6 0.0
17/02:00pm 29.9 25.5 14.0 37 9.6 NE 30 35 16 19 1012.0 1012.0 0.0
17/01:30pm 29.6 25.4 13.4 37 9.6 ENE 28 32 15 17 1012.4 1012.4 0.0
17/01:00pm 29.9 25.7 13.6 36 9.8 ENE 28 33 15 18 1012.8 1012.8 0.0
17/12:30pm 29.0 26.2 13.2 37 9.4 ENE 20 28 11 15 1013.1 1013.1 0.0
17/12:00pm 29.4 26.5 14.0 39 9.3 NE 22 30 12 16 1013.5 1013.5 0.0
17/11:30am 29.0 26.9 13.6 38 9.2 NE 17 26 9 14 1013.9 1013.9 0.0
17/11:00am 28.8 26.4 13.9 40 8.9 N 19 30 10 16 1014.2 1014.2 0.0
17/10:30am 28.0 26.6 14.6 44 8.1 NNE 15 24 8 13 1014.5 1014.5 0.0
17/10:00am 27.1 25.8 14.8 47 7.4 NNW 15 24 8 13 1014.6 1014.6 0.0
17/09:30am 26.4 25.3 15.4 50 6.7 NNW 15 20 8 11 1014.8 1014.8 0.0
17/09:00am 24.9 24.4 15.8 57 5.5 NNW 13 19 7 10 1014.8 1014.8 0.0
17/08:30am 24.1 23.9 16.6 63 4.6 N 13 17 7 9 1014.9 1014.9 0.0
17/08:00am 23.1 22.9 16.6 67 4.0 N 13 15 7 8 1014.9 1014.9 0.0
17/07:30am 22.2 24.7 17.3 74 3.0 CALM 0 0 0 0 1014.8 1014.8 0.0
17/07:00am 21.4 22.6 17.4 78 2.5 NNW 7 9 4 5 1014.5 1014.5 0.0
17/06:30am 21.5 22.9 17.3 77 2.6 N 6 7 3 4 1014.3 1014.3 0.0
17/06:00am 21.3 22.7 17.3 78 2.5 NNE 6 7 3 4 1014.1 1014.1 0.0
17/05:30am 20.6 21.9 17.0 80 2.2 NNW 6 7 3 4 1014.2 1014.2 0.0
17/05:00am 20.9 22.4 17.5 81 2.1 NW 6 7 3 4 1014.2 1014.2 0.0
17/04:30am 20.5 21.5 16.9 80 2.2 WNW 7 9 4 5 1014.3 1014.3 0.0
17/04:00am 21.3 22.4 17.1 77 2.6 NW 7 9 4 5 1014.4 1014.4 0.0
17/03:30am 21.4 22.5 17.2 77 2.6 WNW 7 9 4 5 1014.7 1014.7 0.0
17/03:00am 21.9 22.7 17.3 75 2.8 NW 9 11 5 6 1014.8 1014.8 0.0
17/02:30am 22.4 23.6 17.3 73 3.1 NW 7 9 4 5 1015.2 1015.2 0.0
17/02:00am 22.2 22.9 17.1 73 3.1 NW 9 11 5 6 1015.5 1015.5 0.0
17/01:30am 22.4 22.7 17.1 72 3.3 NW 11 15 6 8 1015.9 1015.9 0.0
17/01:00am 23.3 22.6 17.3 69 3.7 N 17 26 9 14 1016.2 1016.2 0.0
17/12:30am 23.4 21.6 16.9 67 4.0 N 22 30 12 16 1016.5 1016.5 0.0
17/12:00am 23.9 21.8 17.2 66 4.1 N 24 33 13 18 1016.9 1016.9 0.0
 
Date/Time
EDT
Temp
°C
App
Temp
°C
Dew
Point
°C
Rel
Hum
%
Delta-T
°C
Wind Press
QNH
hPa
Press
MSL
hPa
Rain since
9am
mm
Dir  Spd
km/h
Gust
km/h
Spd
kts
Gust
kts
16/11:30pm 24.1 21.5 16.9 64 4.4 N 26 33 14 18 1016.9 1016.9 0.0
16/11:00pm 23.9 21.6 16.7 64 4.4 NNE 24 33 13 18 1017.1 1017.1 0.0
16/10:30pm 24.5 23.5 17.5 65 4.4 NNE 19 26 10 14 1017.3 1017.3 0.0
16/10:00pm 24.7 23.1 18.4 68 4.0 NNE 24 30 13 16 1017.2 1017.2 0.0
16/09:30pm 24.4 23.5 18.3 69 3.8 NNE 20 26 11 14 1017.3 1017.3 0.0
16/09:00pm 24.6 23.4 17.6 65 4.4 NNE 20 28 11 15 1017.3 1017.3 0.0
16/08:30pm 24.5 22.4 17.2 63 4.5 NE 24 32 13 17 1016.8 1016.8 0.0
16/08:00pm 24.8 22.9 16.8 61 4.9 NE 22 30 12 16 1016.9 1016.9 0.0
16/07:30pm 24.9 22.0 16.1 58 5.4 NE 26 35 14 19 1016.7 1016.7 0.0
16/07:00pm 25.0 21.3 15.9 57 5.5 NE 30 37 16 20 1016.7 1016.7 0.0
16/06:30pm 25.4 21.3 14.8 52 6.3 NE 30 39 16 21 1016.8 1016.8 0.0
16/06:00pm 25.7 21.0 13.2 46 7.3 NE 30 37 16 20 1017.0 1017.0 0.0
16/05:30pm 25.7 20.8 14.2 49 6.8 ENE 33 41 18 22 1017.0 1017.0 0.0
16/05:00pm 26.4 21.4 13.9 46 7.4 ENE 33 39 18 21 1017.2 1017.2 0.0
16/04:30pm 26.7 22.6 14.8 48 7.2 ENE 30 37 16 20 1017.3 1017.3 0.0
16/04:00pm 26.9 21.7 12.9 42 8.2 ENE 32 37 17 20 1017.6 1017.6 0.0
16/03:30pm 26.9 22.3 13.6 44 7.9 ENE 30 37 16 20 1017.9 1017.9 0.0
16/03:00pm 26.8 22.4 14.2 46 7.5 ENE 30 33 16 18 1018.4 1018.4 0.0
16/02:30pm 27.5 23.7 12.3 39 8.8 NE 24 33 13 18 1018.9 1018.9 0.0
16/02:00pm 27.1 22.5 12.3 39 8.5 NE 28 37 15 20 1019.2 1019.2 0.0
16/01:30pm 26.8 22.9 12.1 40 8.5 NE 24 35 13 19 1019.5 1019.5 0.0
16/01:00pm 28.6 24.3 12.1 36 9.6 ENE 26 35 14 19 1019.8 1019.8 0.0
16/12:30pm 27.6 24.4 12.0 38 9.0 ENE 20 30 11 16 1020.1 1020.1 0.0
16/12:00pm 27.8 25.1 13.0 40 8.7 ENE 19 30 10 16 1020.6 1020.6 0.0
16/11:30am 27.6 27.3 14.3 44 8.0 SSE 9 13 5 7 1020.9 1020.9 0.0

Latest Capital City Observations: Canberra | Sydney | Melbourne | Brisbane | Adelaide | Perth | Hobart | Darwin

Other formats

Comma delimited format used in spreadsheet applications
http://www.bom.gov.au/fwo/IDN60901/IDN60901.94767.axf

JavaScript Object Notation format (JSON) in row-major order
http://www.bom.gov.au/fwo/IDN60901/IDN60901.94767.json

Data quality

Most of these data are generated automatically and are frequently updated. Quality checks on data are not normally performed. It is possible for incorrect values to appear. Refer to information at About Latest Weather Observations and please check the disclaimer before using these data.